createdAt,value
2019-06-20T03:47:07.763Z,18.60
2019-06-20T03:49:36.219Z,18.60
2019-06-20T03:52:04.643Z,18.50
2019-06-20T03:54:33.070Z,18.50
2019-06-20T03:57:01.488Z,18.70
2019-06-20T03:59:29.954Z,18.60
2019-06-20T04:01:58.592Z,18.70
2019-06-20T04:04:27.034Z,18.70
2019-06-20T04:06:55.447Z,18.60
2019-06-20T04:09:23.873Z,18.60
2019-06-20T04:11:52.461Z,18.50
2019-06-20T04:14:20.975Z,18.60
2019-06-20T04:16:49.397Z,18.70
2019-06-20T04:19:17.832Z,18.70
2019-06-20T04:21:46.267Z,18.70
2019-06-20T04:24:14.705Z,18.70
2019-06-20T04:26:43.200Z,18.80
2019-06-20T04:29:11.631Z,18.90
2019-06-20T04:31:40.140Z,18.90
2019-06-20T04:34:08.576Z,19.00
2019-06-20T04:36:37.066Z,19.10
2019-06-20T04:39:18.752Z,19.30
2019-06-20T04:41:37.518Z,19.20
2019-06-20T04:44:05.946Z,19.30
2019-06-20T04:46:36.047Z,19.30
2019-06-20T04:49:04.654Z,19.20
2019-06-20T04:51:33.262Z,19.20
2019-06-20T04:54:01.685Z,19.30
2019-06-20T04:56:30.273Z,19.20
2019-06-20T04:58:58.735Z,19.30
2019-06-20T05:01:27.258Z,19.20
2019-06-20T05:03:55.724Z,19.20
2019-06-20T05:06:24.325Z,19.30
2019-06-20T05:08:52.827Z,19.30
2019-06-20T05:11:21.258Z,19.40
2019-06-20T05:13:49.714Z,19.40
2019-06-20T05:16:18.175Z,19.60
2019-06-20T05:18:46.599Z,19.60
2019-06-20T05:21:15.031Z,19.70
2019-06-20T05:23:43.459Z,19.70
2019-06-20T05:26:11.938Z,19.70
2019-06-20T05:28:40.362Z,19.80
2019-06-20T05:31:08.828Z,19.80
2019-06-20T05:33:37.346Z,19.90
2019-06-20T05:36:05.773Z,20.00
2019-06-20T05:38:34.196Z,20.10
2019-06-20T05:41:02.664Z,19.90
2019-06-20T05:43:31.112Z,20.00
2019-06-20T05:46:08.890Z,20.10
2019-06-20T05:48:29.718Z,20.20
2019-06-20T05:50:58.209Z,20.20
2019-06-20T05:53:26.754Z,20.20
2019-06-20T05:55:55.407Z,20.20
2019-06-20T05:58:23.900Z,20.20
2019-06-20T06:00:52.508Z,20.20
2019-06-20T06:03:20.922Z,20.20
2019-06-20T06:05:49.373Z,19.90
2019-06-20T06:08:17.820Z,19.80
2019-06-20T06:10:47.074Z,19.70
2019-06-20T06:13:15.610Z,19.60
2019-06-20T06:15:44.115Z,19.70
2019-06-20T06:18:12.616Z,19.70
2019-06-20T06:20:44.616Z,19.60
2019-06-20T06:23:11.198Z,19.70
2019-06-20T06:25:41.550Z,19.70
2019-06-20T06:28:12.394Z,19.50
2019-06-20T06:30:40.223Z,19.50
2019-06-20T06:33:08.642Z,19.60
2019-06-20T06:35:37.189Z,19.60
2019-06-20T06:38:05.813Z,19.70
2019-06-20T06:40:34.360Z,19.80
2019-06-20T06:43:02.881Z,19.70
2019-06-20T06:45:31.409Z,19.80
2019-06-20T06:47:59.956Z,19.70
2019-06-20T06:50:28.598Z,19.70
2019-06-20T06:52:57.030Z,19.80
2019-06-20T06:55:27.637Z,19.80
2019-06-20T06:57:55.627Z,19.70
2019-06-20T07:00:24.394Z,19.70
2019-06-20T07:02:53.111Z,19.70
2019-06-20T07:05:21.615Z,19.60
2019-06-20T07:07:50.035Z,19.70
2019-06-20T07:10:18.792Z,19.70
2019-06-20T07:12:47.220Z,19.60
2019-06-20T07:15:16.882Z,19.70
2019-06-20T07:17:45.365Z,19.70
2019-06-20T07:20:15.376Z,19.60
2019-06-20T07:22:43.939Z,19.70
2019-06-20T07:25:12.910Z,19.60
2019-06-20T07:27:41.347Z,19.60
2019-06-20T07:30:11.708Z,19.60
2019-06-20T07:32:40.143Z,19.70
2019-06-20T07:35:09.008Z,19.60
2019-06-20T07:37:37.449Z,19.70
2019-06-20T07:40:09.508Z,19.70
2019-06-20T07:42:38.000Z,19.80
2019-06-20T07:45:08.388Z,19.90
2019-06-20T07:47:37.144Z,20.10
2019-06-20T07:50:10.489Z,20.10
2019-06-20T07:52:38.925Z,20.00
2019-06-20T07:55:07.985Z,20.00
2019-06-20T07:57:36.428Z,20.20
2019-06-20T08:00:12.663Z,20.30
2019-06-20T08:02:41.964Z,20.50
2019-06-20T08:05:11.671Z,20.60
2019-06-20T08:07:40.087Z,20.60
2019-06-20T08:10:14.271Z,20.60
2019-06-20T08:12:42.699Z,20.60
2019-06-20T08:15:15.794Z,20.60
2019-06-20T08:17:44.644Z,20.70
2019-06-20T08:20:13.795Z,20.70
2019-06-20T08:22:42.230Z,20.70
2019-06-20T08:25:12.568Z,20.60
2019-06-20T08:27:50.321Z,20.60
2019-06-20T08:30:28.149Z,20.60
2019-06-20T08:32:58.116Z,20.40
2019-06-20T08:35:29.493Z,20.40
2019-06-20T08:37:59.277Z,20.40
2019-06-20T08:40:32.994Z,20.30
2019-06-20T08:43:02.158Z,20.30
2019-06-20T08:45:32.706Z,20.10
2019-06-20T08:48:02.455Z,19.70
2019-06-20T08:50:31.402Z,19.60
2019-06-20T08:53:01.240Z,19.60
2019-06-20T08:55:30.493Z,19.60
2019-06-20T08:57:59.726Z,19.70
2019-06-20T09:00:30.308Z,19.50
2019-06-20T09:03:00.421Z,19.50
2019-06-20T09:05:30.847Z,19.40
2019-06-20T09:10:38.435Z,19.40
2019-06-20T09:13:07.305Z,19.50
2019-06-20T09:15:36.258Z,19.50
2019-06-20T09:18:05.586Z,19.50
2019-06-20T09:20:34.958Z,19.40
2019-06-20T09:23:04.294Z,19.50
2019-06-20T09:25:32.812Z,19.40
2019-06-20T09:28:02.660Z,19.50
2019-06-20T09:30:32.258Z,19.60
2019-06-20T09:33:01.175Z,19.70
2019-06-20T09:35:29.845Z,19.70
2019-06-20T09:37:59.356Z,19.90
2019-06-20T09:40:28.904Z,20.00
2019-06-20T09:42:58.645Z,20.10
2019-06-20T09:45:28.012Z,20.20
2019-06-20T09:47:56.532Z,20.30
2019-06-20T09:50:26.412Z,20.30
2019-06-20T09:52:56.591Z,20.40
2019-06-20T09:55:25.700Z,20.60
2019-06-20T09:57:54.264Z,20.60
2019-06-20T10:00:25.368Z,20.70
2019-06-20T10:02:57.585Z,20.80
2019-06-20T10:05:27.661Z,20.70
2019-06-20T10:07:56.927Z,20.60
2019-06-20T10:10:29.899Z,20.50
2019-06-20T10:12:58.571Z,20.40
2019-06-20T10:15:31.718Z,20.40
2019-06-20T10:18:00.598Z,20.40
2019-06-20T10:20:31.574Z,20.40
2019-06-20T10:23:00.084Z,20.30
2019-06-20T10:25:28.656Z,20.30
2019-06-20T10:27:57.912Z,20.30
2019-06-20T10:30:27.624Z,20.40
2019-06-20T10:32:57.527Z,20.50
2019-06-20T10:35:26.362Z,20.50
2019-06-20T10:37:54.965Z,20.50
2019-06-20T10:40:25.508Z,20.50
2019-06-20T10:42:53.943Z,20.50
2019-06-20T10:45:24.991Z,20.50
2019-06-20T10:47:54.225Z,20.40
2019-06-20T10:50:24.975Z,20.30
2019-06-20T10:52:54.271Z,20.20
2019-06-20T10:55:23.246Z,20.20
2019-06-20T10:57:52.384Z,20.20
2019-06-20T11:00:35.238Z,20.20
2019-06-20T11:03:03.914Z,20.20
2019-06-20T11:05:32.424Z,20.30
2019-06-20T11:08:00.852Z,20.40
2019-06-20T11:10:30.983Z,20.60
2019-06-20T11:12:59.432Z,20.60
2019-06-20T11:15:30.045Z,20.70
2019-06-20T11:17:58.601Z,20.50
2019-06-20T11:20:27.387Z,20.50
2019-06-20T11:22:58.593Z,20.60
2019-06-20T11:25:28.126Z,20.60
2019-06-20T11:27:58.120Z,20.60
2019-06-20T11:30:44.476Z,20.60
2019-06-20T11:32:59.639Z,20.90
2019-06-20T11:35:28.156Z,20.90
2019-06-20T11:37:58.197Z,21.00
2019-06-20T11:40:26.956Z,21.00
2019-06-20T11:42:55.428Z,21.00
2019-06-20T11:45:24.416Z,21.00
2019-06-20T11:47:52.916Z,20.80
2019-06-20T11:50:21.990Z,20.70
2019-06-20T11:52:50.485Z,20.50
2019-06-20T11:55:19.480Z,20.60
2019-06-20T11:57:47.964Z,20.60
2019-06-20T12:00:19.707Z,20.60
2019-06-20T12:02:48.424Z,20.60
2019-06-20T12:05:18.378Z,20.40
2019-06-20T12:07:47.869Z,20.30
2019-06-20T12:10:17.723Z,20.00
2019-06-20T12:12:46.975Z,20.00
2019-06-20T12:15:17.986Z,19.90
2019-06-20T12:17:47.239Z,20.00
2019-06-20T12:20:17.259Z,20.00
2019-06-20T12:22:46.625Z,20.10
2019-06-20T12:25:16.753Z,20.10
2019-06-20T12:27:45.675Z,20.10
2019-06-20T12:30:15.884Z,20.20
2019-06-20T12:32:44.729Z,20.30
2019-06-20T12:35:14.778Z,20.30
2019-06-20T12:37:43.357Z,20.30
2019-06-20T12:40:13.175Z,20.10
2019-06-20T12:42:43.209Z,19.90
2019-06-20T12:45:14.824Z,19.80
2019-06-20T12:47:43.875Z,19.70
2019-06-20T12:50:14.618Z,19.70
2019-06-20T12:52:55.262Z,20.00
2019-06-20T12:55:23.729Z,20.20
2019-06-20T12:57:52.226Z,20.30
2019-06-20T13:00:21.804Z,20.30
2019-06-20T13:02:50.313Z,20.40
2019-06-20T13:05:20.764Z,20.50
2019-06-20T13:07:50.303Z,20.60
2019-06-20T13:10:19.912Z,20.60
2019-06-20T13:12:48.823Z,20.60
2019-06-20T13:15:18.200Z,20.50
2019-06-20T13:17:47.117Z,20.70
2019-06-20T13:20:16.222Z,21.20
2019-06-20T13:22:44.904Z,21.60
2019-06-20T13:25:14.013Z,21.80
2019-06-20T13:27:43.433Z,22.20
2019-06-20T13:30:13.470Z,22.70
2019-06-20T13:32:43.332Z,23.00
2019-06-20T13:35:14.143Z,23.40
2019-06-20T13:37:43.561Z,23.90
2019-06-20T13:40:13.991Z,24.60
2019-06-20T13:42:44.059Z,24.90
2019-06-20T13:45:24.558Z,25.00
2019-06-20T13:47:53.268Z,24.80
2019-06-20T13:50:23.534Z,24.70
2019-06-20T13:52:52.294Z,24.40
2019-06-20T13:55:20.787Z,24.40
2019-06-20T13:57:49.488Z,24.50
2019-06-20T14:00:19.947Z,24.60
2019-06-20T14:02:49.064Z,24.30
2019-06-20T14:05:18.365Z,24.40
2019-06-20T14:07:51.113Z,24.50
2019-06-20T14:10:17.377Z,24.90
2019-06-20T14:12:46.859Z,25.30
2019-06-20T14:15:17.238Z,25.50
2019-06-20T14:17:47.038Z,25.60
2019-06-20T14:20:16.495Z,25.60
2019-06-20T14:22:45.214Z,25.60
2019-06-20T14:25:14.235Z,25.80
2019-06-20T14:27:43.979Z,26.20
2019-06-20T14:30:13.886Z,26.60
2019-06-20T14:32:43.283Z,26.60
2019-06-20T14:35:12.521Z,26.50
2019-06-20T14:37:43.476Z,26.40
2019-06-20T14:40:11.721Z,26.00
2019-06-20T14:42:40.147Z,25.60
2019-06-20T14:45:09.329Z,25.40
2019-06-20T14:47:37.995Z,25.40
2019-06-20T14:50:11.072Z,25.50
2019-06-20T14:52:39.813Z,25.50
2019-06-20T14:55:08.837Z,25.60
2019-06-20T14:57:38.225Z,25.50
2019-06-20T15:00:08.687Z,25.70
2019-06-20T15:02:38.722Z,25.40
2019-06-20T15:05:10.331Z,25.00
2019-06-20T15:07:38.783Z,24.90
2019-06-20T15:10:07.457Z,24.80
2019-06-20T15:12:36.045Z,25.00
2019-06-20T15:15:06.107Z,25.00
2019-06-20T15:17:34.571Z,25.00
2019-06-20T15:20:04.467Z,25.00
2019-06-20T15:22:32.954Z,25.30
2019-06-20T15:25:01.383Z,25.20
2019-06-20T15:27:30.908Z,25.10
2019-06-20T15:29:59.328Z,24.80
2019-06-20T15:32:27.780Z,24.70
2019-06-20T15:34:57.256Z,24.70
2019-06-20T15:37:26.253Z,24.60
2019-06-20T15:39:55.461Z,24.50
2019-06-20T15:42:24.042Z,24.60
2019-06-20T15:44:53.446Z,24.40
2019-06-20T15:47:22.315Z,24.30
2019-06-20T15:49:50.798Z,24.40
2019-06-20T15:52:19.230Z,24.60
2019-06-20T15:54:47.883Z,24.40
2019-06-20T15:57:16.377Z,24.20
2019-06-20T15:59:44.850Z,23.90
2019-06-20T16:02:13.280Z,23.70
2019-06-20T16:04:41.773Z,23.60
2019-06-20T16:07:10.211Z,23.50
2019-06-20T16:09:38.714Z,23.30
2019-06-20T16:12:07.145Z,23.30
2019-06-20T16:14:35.617Z,23.30
2019-06-20T16:17:04.088Z,23.10
2019-06-20T16:19:32.578Z,23.10
2019-06-20T16:22:01.020Z,23.10
2019-06-20T16:24:29.472Z,23.20
2019-06-20T16:26:57.901Z,23.10
2019-06-20T16:29:26.409Z,23.20
2019-06-20T16:31:54.850Z,23.40
2019-06-20T16:34:23.279Z,23.40
2019-06-20T16:36:51.703Z,23.50
2019-06-20T16:39:20.125Z,23.50
2019-06-20T16:41:48.557Z,23.40
2019-06-20T16:44:17.170Z,23.30
2019-06-20T16:46:45.605Z,23.20
2019-06-20T16:49:14.333Z,23.10
2019-06-20T16:51:42.764Z,23.10
2019-06-20T16:54:11.278Z,23.10
2019-06-20T16:56:39.753Z,23.00
2019-06-20T16:59:08.287Z,22.90
2019-06-20T17:01:36.785Z,22.80
2019-06-20T17:04:05.319Z,22.70
2019-06-20T17:06:33.795Z,22.50
2019-06-20T17:09:02.223Z,22.40
2019-06-20T17:11:30.679Z,22.30
2019-06-20T17:13:59.253Z,22.20
2019-06-20T17:16:27.683Z,22.30
2019-06-20T17:18:56.252Z,22.30
2019-06-20T17:21:24.682Z,22.40
2019-06-20T17:23:53.247Z,22.30
2019-06-20T17:26:21.681Z,22.20
2019-06-20T17:28:50.658Z,22.20
2019-06-20T17:31:19.110Z,22.30
2019-06-20T17:33:57.165Z,22.20
2019-06-20T17:36:18.847Z,22.20
2019-06-20T17:38:47.526Z,22.30
2019-06-20T17:41:16.192Z,22.20
2019-06-20T17:43:44.645Z,22.20
2019-06-20T17:46:13.175Z,22.20
2019-06-20T17:48:41.631Z,22.40
2019-06-20T17:51:10.117Z,22.60
2019-06-20T17:53:38.555Z,22.80
2019-06-20T17:56:07.077Z,22.90
2019-06-20T17:58:35.512Z,22.80
2019-06-20T18:01:04.055Z,22.60
2019-06-20T18:03:32.478Z,22.50
2019-06-20T18:06:00.921Z,22.20
2019-06-20T18:08:29.336Z,22.10
2019-06-20T18:10:57.780Z,22.00
2019-06-20T18:13:26.205Z,22.00
2019-06-20T18:15:54.639Z,21.70
2019-06-20T18:18:23.152Z,21.60
2019-06-20T18:20:51.601Z,21.40
2019-06-20T18:23:20.420Z,21.10
2019-06-20T18:25:48.923Z,20.90
2019-06-20T18:28:17.440Z,20.80
2019-06-20T18:30:46.346Z,20.70
2019-06-20T18:33:15.414Z,20.60
2019-06-20T18:35:44.258Z,20.50
2019-06-20T18:38:12.744Z,20.50
2019-06-20T18:40:41.193Z,20.50
2019-06-20T18:43:09.633Z,20.50
2019-06-20T18:45:38.103Z,20.50
2019-06-20T18:48:08.414Z,20.40
2019-06-20T18:50:36.930Z,20.40
2019-06-20T18:53:05.683Z,20.30
2019-06-20T18:55:34.335Z,20.20
2019-06-20T18:58:02.781Z,20.00
2019-06-20T19:00:34.902Z,19.90
2019-06-20T19:03:01.710Z,19.70
2019-06-20T19:05:30.240Z,19.80
2019-06-20T19:07:58.673Z,19.70
2019-06-20T19:10:27.108Z,19.50
2019-06-20T19:12:55.643Z,19.70
2019-06-20T19:15:24.515Z,19.60
2019-06-20T19:17:52.958Z,19.50
2019-06-20T19:20:21.753Z,19.40
2019-06-20T19:22:50.277Z,19.50
2019-06-20T19:25:19.131Z,19.60
2019-06-20T19:27:47.573Z,19.60
2019-06-20T19:30:17.416Z,19.40
2019-06-20T19:32:45.903Z,19.20
2019-06-20T19:35:15.200Z,19.20
2019-06-20T19:37:43.700Z,19.20
2019-06-20T19:40:12.985Z,19.00
2019-06-20T19:42:44.677Z,19.00
2019-06-20T19:45:14.635Z,19.10
2019-06-20T19:47:43.190Z,19.10
2019-06-20T19:50:12.057Z,19.10
2019-06-20T19:52:40.963Z,19.20
2019-06-20T19:55:10.875Z,19.40
2019-06-20T19:57:39.461Z,19.30
2019-06-20T20:00:09.494Z,19.30
2019-06-20T20:02:38.061Z,19.30
2019-06-20T20:05:18.652Z,19.30
2019-06-20T20:07:39.450Z,19.30
2019-06-20T20:10:09.145Z,19.30
2019-06-20T20:12:38.653Z,19.20
2019-06-20T20:15:08.974Z,19.10
2019-06-20T20:17:38.630Z,19.10
2019-06-20T20:20:08.047Z,19.00
2019-06-20T20:22:37.129Z,19.00
2019-06-20T20:25:07.902Z,18.90
2019-06-20T20:27:36.431Z,18.70
2019-06-20T20:30:10.222Z,18.60
2019-06-20T20:32:38.917Z,18.50
2019-06-20T20:35:07.693Z,18.30
2019-06-20T20:37:36.642Z,18.50
2019-06-20T20:40:10.264Z,18.60
2019-06-20T20:42:38.779Z,18.70
2019-06-20T20:45:08.457Z,18.60
2019-06-20T20:47:36.915Z,18.50
2019-06-20T20:50:09.395Z,18.70
2019-06-20T20:52:38.113Z,18.80
2019-06-20T20:55:10.207Z,18.90
2019-06-20T20:57:38.662Z,18.60
2019-06-20T21:00:09.603Z,18.50
2019-06-20T21:02:38.196Z,18.50
2019-06-20T21:05:06.859Z,18.50
2019-06-20T21:07:38.430Z,18.40
2019-06-20T21:10:06.855Z,18.40
2019-06-20T21:12:35.362Z,18.40
2019-06-20T21:15:05.979Z,18.30
2019-06-20T21:17:34.496Z,18.20
2019-06-20T21:20:04.677Z,18.40
2019-06-20T21:22:33.459Z,18.40
2019-06-20T21:25:02.101Z,18.40
2019-06-20T21:27:30.786Z,18.50
2019-06-20T21:29:59.530Z,18.50
2019-06-20T21:32:28.154Z,18.60
2019-06-20T21:34:56.881Z,18.70
2019-06-20T21:37:25.504Z,18.70
2019-06-20T21:39:54.145Z,18.70
2019-06-20T21:42:22.830Z,18.60
2019-06-20T21:44:51.444Z,18.60
2019-06-20T21:47:19.973Z,18.60
2019-06-20T21:49:48.510Z,18.60
2019-06-20T21:52:17.245Z,18.60
2019-06-20T21:54:45.867Z,18.60
2019-06-20T21:57:14.607Z,18.60
2019-06-20T21:59:43.202Z,18.60
2019-06-20T22:02:11.958Z,18.60
2019-06-20T22:04:53.708Z,18.60
2019-06-20T22:07:10.991Z,18.50
2019-06-20T22:09:39.645Z,18.50
2019-06-20T22:12:08.302Z,18.50
2019-06-20T22:14:36.953Z,18.40
2019-06-20T22:17:05.788Z,18.30
2019-06-20T22:19:34.412Z,18.40
2019-06-20T22:22:03.062Z,18.40
2019-06-20T22:24:31.740Z,18.30
2019-06-20T22:27:00.382Z,18.30
2019-06-20T22:29:29.312Z,18.20
2019-06-20T22:31:57.922Z,18.20
2019-06-20T22:34:26.506Z,18.20
2019-06-20T22:36:55.264Z,18.10
2019-06-20T22:39:23.918Z,18.00
2019-06-20T22:41:52.451Z,18.00
2019-06-20T22:44:21.202Z,18.00
2019-06-20T22:46:50.017Z,18.00
2019-06-20T22:49:18.760Z,17.90
2019-06-20T22:51:47.326Z,18.10
2019-06-20T22:54:16.022Z,18.10
2019-06-20T22:56:44.601Z,18.10
2019-06-20T22:59:13.188Z,18.10
